Samos Majesty — C6BG6 — position and weather

sailwx.info

Track history (hours):
 
Tides and Currents Weather Stations Pressure Air Temp Water Temp Dewpoint Dewpoint Depression Visibility Wind Speed Wind Dir Waves Ship Positions

Samos Majesty

Last reported at 2018-Jun-24 19:59 UTC. Time now 2018-Jun-24 20:15 UTC.
Position N 51°15' E 004°23'.

Length 190 m; draft 7.1 m.

Type: Ship. MMSI: 311000257.

Date/timePositionNaut miles runAvg speedWind from/ knotsBaromVisibWave heightAir tempDewpointWater temp
2018-Jun-24 19:59N 51°15' E 004°23'0 0.0
2018-Jun-24 19:30N 51°15' E 004°23'0 0.0
2018-Jun-24 18:59N 51°15' E 004°23'0 0.0
2018-Jun-24 18:29N 51°15' E 004°23'0 0.0
2018-Jun-24 17:59N 51°15' E 004°23'0 0.0
2018-Jun-24 17:29N 51°15' E 004°23'0 0.0
2018-Jun-24 16:59N 51°15' E 004°23'0 0.0
2018-Jun-24 16:29N 51°15' E 004°23'0 0.0
2018-Jun-24 15:59N 51°15' E 004°23'0 0.0
2018-Jun-24 15:29N 51°15' E 004°23'0 0.0
2018-Jun-24 14:59N 51°15' E 004°23'0 0.0
2018-Jun-24 14:29N 51°15' E 004°23'0 0.0
2018-Jun-24 13:59N 51°15' E 004°23'0 0.0
2018-Jun-24 13:29N 51°15' E 004°23'0 0.0
2018-Jun-24 12:59N 51°15' E 004°23'0 0.0
2018-Jun-24 12:29N 51°15' E 004°23'0 0.0
2018-Jun-24 11:59N 51°15' E 004°23'0 0.0
2018-Jun-24 11:29N 51°15' E 004°23'0 0.0
2018-Jun-24 10:59N 51°15' E 004°23'0 0.0
2018-Jun-24 10:30N 51°15' E 004°23'0 0.0
2018-Jun-24 09:59N 51°15' E 004°23'0 0.0
2018-Jun-24 09:29N 51°15' E 004°23'0 0.0
2018-Jun-24 08:59N 51°15' E 004°23'0 0.0
2018-Jun-24 08:29N 51°15' E 004°23'0 0.0
2018-Jun-24 07:59N 51°15' E 004°23'0 0.0
2018-Jun-24 07:30N 51°15' E 004°23'0 0.0
2018-Jun-24 06:59N 51°15' E 004°23'0 0.0
2018-Jun-24 06:29N 51°15' E 004°23'0 0.0
2018-Jun-24 05:59N 51°15' E 004°23'0 0.0
2018-Jun-24 05:29N 51°15' E 004°23'0 0.0
2018-Jun-24 04:59N 51°15' E 004°23'0 0.0
2018-Jun-24 04:29N 51°15' E 004°23'0 0.0
2018-Jun-24 03:59N 51°15' E 004°23'0 0.0
2018-Jun-24 03:29N 51°15' E 004°23'0 0.0
2018-Jun-24 02:59N 51°15' E 004°23'0 0.0
2018-Jun-24 02:29N 51°15' E 004°23'0 0.0
2018-Jun-24 01:59N 51°15' E 004°23'0 0.0
2018-Jun-24 01:29N 51°15' E 004°23'0 0.0
2018-Jun-24 00:59N 51°15' E 004°23'0 0.0
2018-Jun-24 00:29N 51°15' E 004°23'0 0.0
2018-Jun-23 23:59N 51°15' E 004°23'0 0.0
2018-Jun-23 23:29N 51°15' E 004°23'0 0.0
2018-Jun-23 22:59N 51°15' E 004°23'0 0.0
2018-Jun-23 22:29N 51°15' E 004°23'0 0.0
2018-Jun-23 21:59N 51°15' E 004°23'0 0.0
2018-Jun-23 21:26N 51°15' E 004°23'0 0.0
2018-Jun-23 20:59N 51°15' E 004°23'0 0.0
2018-Jun-23 20:29N 51°15' E 004°23'0 0.0
2018-Jun-23 19:59N 51°15' E 004°23'0 0.0
2018-Jun-23 19:29N 51°15' E 004°23'0 0.0
2018-Jun-23 18:59N 51°15' E 004°23'0 0.0
2018-Jun-23 18:29N 51°15' E 004°23'0 0.0
2018-Jun-23 17:59N 51°15' E 004°23'0 0.0
2018-Jun-23 17:29N 51°15' E 004°23'0 0.0
2018-Jun-23 16:56N 51°15' E 004°23'0 0.0
2018-Jun-23 16:29N 51°15' E 004°23'0 0.0
2018-Jun-23 15:59N 51°15' E 004°23'0 0.0
2018-Jun-23 15:29N 51°15' E 004°23'0 0.0
2018-Jun-23 14:59N 51°15' E 004°23'0 0.0
2018-Jun-23 14:29N 51°15' E 004°23'0 0.0
2018-Jun-23 13:59N 51°15' E 004°23'0 0.0
2018-Jun-23 13:29N 51°15' E 004°23'0 0.0
2018-Jun-23 12:59N 51°15' E 004°23'0 0.0
2018-Jun-23 12:29N 51°15' E 004°23'0 0.0
2018-Jun-23 11:59N 51°15' E 004°23'0 0.0
2018-Jun-23 11:29N 51°15' E 004°23'0 0.6
2018-Jun-23 11:01N 51°15' E 004°23'2 3.8
2018-Jun-23 10:30N 51°16' E 004°20'3 6.2
2018-Jun-23 10:00N 51°19' E 004°19'2 3.8
2018-Jun-23 09:31N 51°21' E 004°17'0 0.0
2018-Jun-23 09:01N 51°21' E 004°17'0 0.0
2018-Jun-23 08:31N 51°21' E 004°17'1 2.5
2018-Jun-23 08:00N 51°21' E 004°15'4 7.4
2018-Jun-23 07:31N 51°24' E 004°11'611.4
2018-Jun-23 07:00N 51°23' E 004°02'3 6.3
2018-Jun-23 06:31N 51°24' E 003°57'612.4
2018-Jun-23 06:00N 51°21' E 003°49'612.4
2018-Jun-23 05:30N 51°25' E 003°42'5 9.5
2018-Jun-23 05:00N 51°26' E 003°34'511.0
2018-Jun-23 04:31N 51°30' E 003°28'612.1
2018-Jun-23 03:59N 51°35' E 003°23'612.2
2018-Jun-23 03:28N 51°41' E 003°18'4 8.8
2018-Jun-23 03:00N 51°44' E 003°15'3 6.2
2018-Jun-23 02:30N 51°47' E 003°19'0 0.3
2018-Jun-23 01:11N 51°46' E 003°19'0 0.2
2018-Jun-23 00:50N 51°46' E 003°19'0 0.0
2018-Jun-22 20:53N 51°46' E 003°19'0 0.0
2018-Jun-22 20:08N 51°46' E 003°19'0 0.9
2018-Jun-22 19:57N 51°46' E 003°19'2 3.3
2018-Jun-22 19:23N 51°48' E 003°17'410.7
2018-Jun-22 19:00N 51°52' E 003°18'613.1
2018-Jun-22 18:30N 51°58' E 003°19'713.8
2018-Jun-22 18:00N 52°05' E 003°22'714.2
2018-Jun-22 17:30N 52°11' E 003°27'714.2
2018-Jun-22 17:00N 52°17' E 003°33'714.3
2018-Jun-22 16:30N 52°24' E 003°38'714.2
2018-Jun-22 16:00N 52°29' E 003°45'612.0
2018-Jun-22 15:30N 52°32' E 003°55'611.7
2018-Jun-22 15:00N 52°32' E 004°04'611.5
2018-Jun-22 14:30N 52°31' E 004°14'611.5
2018-Jun-22 14:00N 52°30' E 004°23'4 8.9
2018-Jun-22 13:31N 52°29' E 004°30'4 8.1
2018-Jun-22 13:01N 52°28' E 004°37'0 0.5
2018-Jun-22 12:30N 52°28' E 004°37'1 1.8
2018-Jun-22 12:00N 52°28' E 004°38'1 2.6
2018-Jun-22 11:30N 52°27' E 004°40'3 5.7
2018-Jun-22 11:01N 52°26' E 004°44'3 5.6
2018-Jun-22 10:30N 52°25' E 004°49'1 1.2
2018-Jun-22 09:59N 52°25' E 004°49'0 0.0
2018-Jun-22 09:29N 52°25' E 004°49'0 0.0
2018-Jun-22 08:59N 52°25' E 004°49'0 0.0
2018-Jun-22 08:29N 52°25' E 004°49'0 0.0
2018-Jun-22 07:59N 52°25' E 004°49'0 0.0
2018-Jun-22 07:29N 52°25' E 004°49'0 0.0
2018-Jun-22 06:59N 52°25' E 004°49'0 0.0
2018-Jun-22 06:29N 52°25' E 004°49'0 0.0
2018-Jun-22 05:59N 52°25' E 004°49'0 0.0
2018-Jun-22 05:29N 52°25' E 004°49'0 0.0
2018-Jun-22 04:59N 52°25' E 004°49'0 0.0
2018-Jun-22 04:29N 52°25' E 004°49'0 0.0
2018-Jun-22 03:59N 52°25' E 004°49'0 0.0
2018-Jun-22 03:29N 52°25' E 004°49'0 0.0
2018-Jun-22 02:59N 52°25' E 004°49'0 0.0
2018-Jun-22 02:29N 52°25' E 004°49'0 0.0
2018-Jun-22 01:56N 52°25' E 004°49'0 0.0
2018-Jun-22 01:29N 52°25' E 004°49'0 0.0
2018-Jun-22 00:59N 52°25' E 004°49'0 0.0
2018-Jun-22 00:29N 52°25' E 004°49'0 0.0
2018-Jun-21 23:59N 52°25' E 004°49'0 0.0
2018-Jun-21 23:29N 52°25' E 004°49'0 0.0
2018-Jun-21 22:59N 52°25' E 004°49'0 0.0
2018-Jun-21 22:29N 52°25' E 004°49'0 0.0
2018-Jun-21 21:59N 52°25' E 004°49'0 0.0
2018-Jun-21 21:29N 52°25' E 004°49'0 0.0
2018-Jun-21 20:59N 52°25' E 004°49'0 0.0
2018-Jun-21 20:29N 52°25' E 004°49'0 0.0
2018-Jun-21 19:59N 52°25' E 004°49'0 0.0
2018-Jun-21 19:29N 52°25' E 004°49'0 0.0
2018-Jun-21 18:59N 52°25' E 004°49'0 0.0
2018-Jun-21 18:29N 52°25' E 004°49'0 0.0
2018-Jun-21 17:59N 52°25' E 004°49'0 0.0
2018-Jun-21 17:29N 52°25' E 004°49'0 0.0
2018-Jun-21 16:59N 52°25' E 004°49'0 0.0
2018-Jun-21 16:29N 52°25' E 004°49'0 0.0
2018-Jun-21 15:59N 52°25' E 004°49'0 0.0
2018-Jun-21 15:29N 52°25' E 004°49'0 0.0
2018-Jun-21 14:59N 52°25' E 004°49'0 0.0
2018-Jun-21 14:29N 52°25' E 004°49'0 0.0
2018-Jun-21 13:59N 52°25' E 004°49'0 0.0
2018-Jun-21 13:29N 52°25' E 004°49'0 0.0
2018-Jun-21 12:59N 52°25' E 004°49'0 0.0
2018-Jun-21 12:29N 52°25' E 004°49'0 0.0
2018-Jun-21 11:59N 52°25' E 004°49'0 0.0
2018-Jun-21 11:29N 52°25' E 004°49'0 0.0
2018-Jun-21 10:59N 52°25' E 004°49'0 0.0
2018-Jun-21 10:29N 52°25' E 004°49'0 0.0
2018-Jun-21 09:59N 52°25' E 004°49'0 0.0
2018-Jun-21 09:29N 52°25' E 004°49'0 0.0
2018-Jun-21 08:59N 52°25' E 004°49'0 0.0
2018-Jun-21 08:29N 52°25' E 004°49'0 0.0
2018-Jun-21 07:59N 52°25' E 004°49'0 0.0
2018-Jun-21 07:29N 52°25' E 004°49'0 0.0
2018-Jun-21 06:59N 52°25' E 004°49'0 0.0
2018-Jun-21 06:29N 52°25' E 004°49'0 0.0
2018-Jun-21 05:59N 52°25' E 004°49'0 0.0
2018-Jun-21 05:29N 52°25' E 004°49'0 0.0
2018-Jun-21 04:59N 52°25' E 004°49'0 0.0
2018-Jun-21 04:29N 52°25' E 004°49'0 0.0
2018-Jun-21 03:59N 52°25' E 004°49'0 0.0
2018-Jun-21 03:29N 52°25' E 004°49'0 0.0
2018-Jun-21 02:59N 52°25' E 004°49'0 0.0
2018-Jun-21 02:29N 52°25' E 004°49'0 0.0
2018-Jun-21 01:59N 52°25' E 004°49'0 0.0
2018-Jun-21 01:29N 52°25' E 004°49'0 0.0
2018-Jun-21 00:59N 52°25' E 004°49'0 0.0
2018-Jun-21 00:29N 52°25' E 004°49'0 0.0
2018-Jun-20 23:59N 52°25' E 004°49'0 0.0
2018-Jun-20 23:29N 52°25' E 004°49'0 0.0
2018-Jun-20 22:59N 52°25' E 004°49'0 0.0
2018-Jun-20 22:29N 52°25' E 004°49'0 0.0
2018-Jun-20 21:59N 52°25' E 004°49'0 0.0
2018-Jun-20 21:29N 52°25' E 004°49'0 0.0
2018-Jun-20 20:59N 52°25' E 004°49'0 0.0
2018-Jun-20 20:29N 52°25' E 004°49'0 0.0
2018-Jun-20 19:59N 52°25' E 004°49'0 0.0
2018-Jun-20 19:29N 52°25' E 004°49'0 0.0
2018-Jun-20 18:59N 52°25' E 004°49'0 0.0
2018-Jun-20 18:29N 52°25' E 004°49'0 0.0
2018-Jun-20 17:59N 52°25' E 004°49'0 0.0
2018-Jun-20 17:29N 52°25' E 004°49'0 0.0
2018-Jun-20 16:59N 52°25' E 004°49'0 0.1
2018-Jun-20 16:29N 52°25' E 004°49'0 0.0
2018-Jun-20 15:59N 52°25' E 004°49'0 0.0
2018-Jun-20 15:29N 52°25' E 004°49'0 0.0
2018-Jun-20 14:59N 52°25' E 004°49'0 0.0
2018-Jun-20 14:26N 52°25' E 004°49'0 0.0
2018-Jun-20 13:59N 52°25' E 004°49'0 0.0
2018-Jun-20 13:29N 52°25' E 004°49'0 0.0
2018-Jun-20 12:59N 52°25' E 004°49'0 0.0
2018-Jun-20 12:29N 52°25' E 004°49'0 0.0
2018-Jun-20 11:59N 52°25' E 004°49'0 0.0
2018-Jun-20 11:29N 52°25' E 004°49'0 0.0
2018-Jun-20 10:59N 52°25' E 004°49'0 0.0
2018-Jun-20 10:29N 52°25' E 004°49'0 0.0
2018-Jun-20 09:59N 52°25' E 004°49'0 0.0
2018-Jun-20 09:29N 52°25' E 004°49'0 0.0
2018-Jun-20 08:59N 52°25' E 004°49'0 0.0
2018-Jun-20 08:29N 52°25' E 004°49'0 0.0
2018-Jun-20 07:59N 52°25' E 004°49'0 0.0
2018-Jun-20 07:29N 52°25' E 004°49'0 0.0
2018-Jun-20 06:59N 52°25' E 004°49'0 0.0
2018-Jun-20 06:29N 52°25' E 004°49'0 0.0
2018-Jun-20 05:59N 52°25' E 004°49'0 0.0
2018-Jun-20 05:29N 52°25' E 004°49'0 0.0
2018-Jun-20 04:59N 52°25' E 004°49'0 0.0
2018-Jun-20 04:29N 52°25' E 004°49'0 0.0
2018-Jun-20 03:59N 52°25' E 004°49'0 0.0
2018-Jun-20 03:29N 52°25' E 004°49'0 0.0
2018-Jun-20 02:59N 52°25' E 004°49'0 0.0
2018-Jun-20 02:29N 52°25' E 004°49'0 0.0
2018-Jun-20 01:59N 52°25' E 004°49'0 0.0
2018-Jun-20 01:29N 52°25' E 004°49'0 0.0
2018-Jun-20 00:59N 52°25' E 004°49'0 0.0
2018-Jun-20 00:29N 52°25' E 004°49'0 0.0
2018-Jun-19 23:59N 52°25' E 004°49'0 0.0
2018-Jun-19 23:29N 52°25' E 004°49'0 0.0
2018-Jun-19 22:59N 52°25' E 004°49'0 0.0
2018-Jun-19 22:29N 52°25' E 004°49'0 0.0
2018-Jun-19 21:59N 52°25' E 004°49'0 0.0
2018-Jun-19 21:29N 52°25' E 004°49'0 0.0
2018-Jun-19 20:59N 52°25' E 004°49'0 0.0
2018-Jun-19 20:29N 52°25' E 004°49'0 0.0
2018-Jun-19 19:59N 52°25' E 004°49'0 0.0
2018-Jun-19 19:29N 52°25' E 004°49'0 0.0
2018-Jun-19 18:59N 52°25' E 004°49'0 0.0
2018-Jun-19 18:26N 52°25' E 004°49'0 0.0
2018-Jun-19 17:59N 52°25' E 004°49'0 0.0
2018-Jun-19 17:29N 52°25' E 004°49'0 0.1
2018-Jun-19 16:59N 52°25' E 004°49'0 0.0
2018-Jun-19 16:29N 52°25' E 004°49'0 0.0
2018-Jun-19 15:59N 52°25' E 004°49'0 0.0
2018-Jun-19 15:29N 52°25' E 004°49'0 0.0
2018-Jun-19 14:59N 52°25' E 004°49'0 0.0
2018-Jun-19 14:29N 52°25' E 004°49'0 0.0
2018-Jun-19 13:59N 52°25' E 004°49'0 0.0
2018-Jun-19 13:29N 52°25' E 004°49'0 0.0
2018-Jun-19 12:59N 52°25' E 004°49'0 0.0
2018-Jun-19 12:29N 52°25' E 004°49'0 0.0
2018-Jun-19 11:59N 52°25' E 004°49'0 0.0
2018-Jun-19 11:29N 52°25' E 004°49'0 0.0
2018-Jun-19 10:59N 52°25' E 004°49'0 0.0
2018-Jun-19 10:29N 52°25' E 004°49'0 0.0
2018-Jun-19 09:59N 52°25' E 004°49'0 0.0
2018-Jun-19 09:29N 52°25' E 004°49'0 0.0
2018-Jun-19 08:59N 52°25' E 004°49'0 0.0
2018-Jun-19 08:26N 52°25' E 004°49'0 0.0
2018-Jun-19 07:59N 52°25' E 004°49'0 0.0
2018-Jun-19 07:29N 52°25' E 004°49'0 0.0
2018-Jun-19 06:59N 52°25' E 004°49'0 0.0
2018-Jun-19 06:29N 52°25' E 004°49'0 0.0
2018-Jun-19 05:59N 52°25' E 004°49'0 0.0
2018-Jun-19 05:29N 52°25' E 004°49'0 0.0
2018-Jun-19 04:59N 52°25' E 004°49'0 0.0
2018-Jun-19 04:29N 52°25' E 004°49'0 0.0
2018-Jun-19 03:59N 52°25' E 004°49'0 0.0
2018-Jun-19 03:29N 52°25' E 004°49'0 0.0
2018-Jun-19 02:59N 52°25' E 004°49'0 0.0
2018-Jun-19 02:29N 52°25' E 004°49'0 0.0
2018-Jun-19 01:59N 52°25' E 004°49'0 0.0
2018-Jun-19 01:29N 52°25' E 004°49'0 0.0
2018-Jun-19 00:59N 52°25' E 004°49'0 0.0
2018-Jun-19 00:29N 52°25' E 004°49'0 0.0
2018-Jun-18 23:59N 52°25' E 004°49'0 0.0
2018-Jun-18 23:29N 52°25' E 004°49'0 0.0
2018-Jun-18 22:59N 52°25' E 004°49'0 0.0
2018-Jun-18 22:29N 52°25' E 004°49'0 0.0
2018-Jun-18 21:59N 52°25' E 004°49'0 0.0
2018-Jun-18 21:29N 52°25' E 004°49'0 0.0
2018-Jun-18 20:59N 52°25' E 004°49'0 0.0
2018-Jun-18 20:29N 52°25' E 004°49'0 0.0
2018-Jun-18 19:59N 52°25' E 004°49'0 0.0
2018-Jun-18 19:29N 52°25' E 004°49'0 0.0
2018-Jun-18 18:59N 52°25' E 004°49'0 0.0
2018-Jun-18 18:29N 52°25' E 004°49'0 0.0
2018-Jun-18 17:59N 52°25' E 004°49'0 0.0
2018-Jun-18 17:29N 52°25' E 004°49'0 0.0
2018-Jun-18 16:59N 52°25' E 004°49'0 0.0
2018-Jun-18 16:29N 52°25' E 004°49'0 0.0
2018-Jun-18 15:59N 52°25' E 004°49'0 0.0
2018-Jun-18 15:29N 52°25' E 004°49'0 0.0
2018-Jun-18 14:59N 52°25' E 004°49'0 0.0
2018-Jun-18 14:26N 52°25' E 004°49'0 0.0
2018-Jun-18 13:59N 52°25' E 004°49'0 0.0
2018-Jun-18 13:29N 52°25' E 004°49'0 0.0
2018-Jun-18 12:59N 52°25' E 004°49'0 0.0
2018-Jun-18 12:29N 52°25' E 004°49'0 0.0
2018-Jun-18 11:59N 52°25' E 004°49'0 0.0
2018-Jun-18 11:29N 52°25' E 004°49'0 0.0
2018-Jun-18 10:59N 52°25' E 004°49'0 0.0
2018-Jun-18 10:29N 52°25' E 004°49'0 0.0
2018-Jun-18 09:59N 52°25' E 004°49'0 0.0
2018-Jun-18 09:29N 52°25' E 004°49'0 0.0
2018-Jun-18 08:59N 52°25' E 004°49'0 0.0
2018-Jun-18 08:29N 52°25' E 004°49'0 0.0
2018-Jun-18 07:59N 52°25' E 004°49'0 0.0
2018-Jun-18 07:29N 52°25' E 004°49'0 0.1
2018-Jun-18 06:59N 52°25' E 004°49'0 0.1
2018-Jun-18 06:29N 52°25' E 004°49'0 0.0
2018-Jun-18 05:59N 52°25' E 004°49'0 0.0
2018-Jun-18 05:29N 52°25' E 004°49'0 0.0
2018-Jun-18 04:59N 52°25' E 004°49'0 0.0
2018-Jun-18 04:29N 52°25' E 004°49'0 0.0
2018-Jun-18 03:59N 52°25' E 004°49'0 0.0
2018-Jun-18 03:29N 52°25' E 004°49'0 0.0
2018-Jun-18 02:59N 52°25' E 004°49'0 0.0
2018-Jun-18 02:29N 52°25' E 004°49'0 0.0
2018-Jun-18 01:59N 52°25' E 004°49'0 0.0
2018-Jun-18 01:29N 52°25' E 004°49'0 0.0
2018-Jun-18 01:00N 52°25' E 004°49'0 0.6
2018-Jun-18 00:30N 52°25' E 004°49'3 5.5
2018-Jun-18 00:01N 52°26' E 004°45'4 7.3
2018-Jun-17 23:30N 52°28' E 004°39'2 3.8
2018-Jun-17 23:00N 52°28' E 004°36'0 0.1
2018-Jun-17 22:30N 52°28' E 004°36'3 5.7
2018-Jun-17 22:00N 52°28' E 004°32'5 9.3
2018-Jun-17 21:30N 52°29' E 004°24'5 9.1
2018-Jun-17 21:00N 52°29' E 004°17'510.0
2018-Jun-17 20:30N 52°29' E 004°09'5 9.9
2018-Jun-17 20:00N 52°28' E 004°01'612.8
2018-Jun-17 19:30N 52°26' E 003°50'713.4
2018-Jun-17 19:00N 52°24' E 003°40'713.9
2018-Jun-17 18:31N 52°21' E 003°30'914.4
2018-Jun-17 17:52N 52°14' E 003°19'514.6
2018-Jun-17 17:30N 52°11' E 003°13'814.8
2018-Jun-17 17:00N 52°05' E 003°04'714.9
2018-Jun-17 16:30N 52°00' E 002°56'1315.1
2018-Jun-17 15:40N 51°50' E 002°43'314.9
2018-Jun-17 15:28N 51°48' E 002°40'714.9
2018-Jun-17 15:01N 51°43' E 002°32'714.5
2018-Jun-17 14:31N 51°38' E 002°24'714.2
2018-Jun-17 14:00N 51°32' E 002°17'713.6
2018-Jun-17 13:30N 51°27' E 002°09'713.4
2018-Jun-17 13:00N 51°22' E 002°02'613.0
2018-Jun-17 12:30N 51°17' E 001°56'612.0
2018-Jun-17 12:00N 51°13' E 001°49'611.1
2018-Jun-17 11:30N 51°09' E 001°43'510.2
2018-Jun-17 11:00N 51°04' E 001°39'5 9.9
2018-Jun-17 10:30N 51°01' E 001°33'5 9.9
2018-Jun-17 10:00N 50°57' E 001°29'5 9.6
2018-Jun-17 09:30N 50°53' E 001°25'510.3
2018-Jun-17 09:00N 50°48' E 001°23'510.5
2018-Jun-17 08:30N 50°43' E 001°20'611.0
2018-Jun-17 07:58N 50°38' E 001°13'1111.5
2018-Jun-17 07:02N 50°31' E 001°00'111.6
2018-Jun-17 06:54N 50°31' E 000°58'511.6
2018-Jun-17 06:26N 50°29' E 000°50'1511.7
2018-Jun-17 05:08N 50°25' E 000°27'311.6
2018-Jun-17 04:53N 50°24' E 000°23'2211.7
2018-Jun-17 03:00N 50°18' W 000°10'611.9
2018-Jun-17 02:29N 50°16' W 000°19'712.1
2018-Jun-17 01:55N 50°15' W 000°30'512.7
2018-Jun-17 01:30N 50°13' W 000°38'813.5
2018-Jun-17 00:57N 50°11' W 000°49'5616.3
2018-Jun-16 21:31N 49°56' W 002°13'116.9
2018-Jun-16 21:27N 49°56' W 002°15'716.5
2018-Jun-16 21:00N 49°54' W 002°26'815.7
2018-Jun-16 20:30N 49°52' W 002°37'815.3
2018-Jun-16 20:00N 49°50' W 002°49'714.8
2018-Jun-16 19:30N 49°46' W 002°59'814.5
2018-Jun-16 18:58N 49°43' W 003°10'714.2
2018-Jun-16 18:29N 49°39' W 003°19'1613.8
2018-Jun-16 17:17N 49°31' W 003°41'413.5
2018-Jun-16 16:59N 49°29' W 003°46'613.4
2018-Jun-16 16:30N 49°25' W 003°55'1412.9
2018-Jun-16 15:26N 49°18' W 004°13'4011.3
2018-Jun-16 11:52N 48°58' W 005°06'410.8
2018-Jun-16 11:29N 48°56' W 005°11'510.9
2018-Jun-16 11:00N 48°53' W 005°18'510.8
2018-Jun-16 10:31N 48°50' W 005°25'42 9.4
2018-Jun-16 06:02N 48°08' W 005°24'312.3
2018-Jun-16 05:48N 48°05' W 005°21'412.3
2018-Jun-16 05:29N 48°03' W 005°17'612.7
2018-Jun-16 05:00N 47°59' W 005°10'712.8
2018-Jun-16 04:27N 47°55' W 005°01'613.0
2018-Jun-16 04:01N 47°52' W 004°54'713.2
2018-Jun-16 03:30N 47°48' W 004°46'1113.0
2018-Jun-16 02:40N 47°42' W 004°33'212.7
2018-Jun-16 02:29N 47°41' W 004°30'1513.0
2018-Jun-16 01:22N 47°34' W 004°11'613.2
2018-Jun-16 00:56N 47°31' W 004°03'613.0
2018-Jun-16 00:31N 47°28' W 003°56'612.7
2018-Jun-16 00:01N 47°26' W 003°48'612.7
2018-Jun-15 23:31N 47°23' W 003°40'612.5
2018-Jun-15 23:00N 47°20' W 003°31'612.5
2018-Jun-15 22:30N 47°17' W 003°23'612.7
2018-Jun-15 22:01N 47°14' W 003°15'713.3
2018-Jun-15 21:30N 47°12' W 003°05'612.8
2018-Jun-15 21:00N 47°10' W 002°57'612.6
2018-Jun-15 20:31N 47°07' W 002°48'612.9
2018-Jun-15 20:00N 47°05' W 002°39'612.9
2018-Jun-15 19:30N 47°04' W 002°30'611.6
2018-Jun-15 19:00N 47°07' W 002°22'611.3
2018-Jun-15 18:31N 47°12' W 002°17'612.2
2018-Jun-15 18:00N 47°16' W 002°11'3 5.5
2018-Jun-15 17:28N 47°18' W 002°08'0 0.0
2018-Jun-15 16:49N 47°18' W 002°08'0 0.0
2018-Jun-15 16:19N 47°18' W 002°08'0 0.0
2018-Jun-15 15:58N 47°18' W 002°08'0 0.0
2018-Jun-15 15:28N 47°18' W 002°08'0 0.0
2018-Jun-15 14:58N 47°18' W 002°08'0 0.0
2018-Jun-15 14:28N 47°18' W 002°08'0 0.0
2018-Jun-15 13:58N 47°18' W 002°08'0 0.0
2018-Jun-15 13:25N 47°18' W 002°08'0 0.0
2018-Jun-15 12:58N 47°18' W 002°08'0 0.0
2018-Jun-15 12:25N 47°18' W 002°08'0 0.0
2018-Jun-15 11:52N 47°18' W 002°08'0 0.0
2018-Jun-15 11:28N 47°18' W 002°08'0 0.0
2018-Jun-15 10:58N 47°18' W 002°08'0 0.0
2018-Jun-15 10:28N 47°18' W 002°08'0 0.0
2018-Jun-15 09:58N 47°18' W 002°08'0 0.0
2018-Jun-15 09:28N 47°18' W 002°08'0 0.0
2018-Jun-15 08:58N 47°18' W 002°08'0 0.0
2018-Jun-15 08:28N 47°18' W 002°08'0 0.0
2018-Jun-15 07:58N 47°18' W 002°08'0 0.0
2018-Jun-15 07:28N 47°18' W 002°08'0 0.0
2018-Jun-15 06:58N 47°18' W 002°08'0 0.0
2018-Jun-15 06:28N 47°18' W 002°08'0 0.0
2018-Jun-15 05:58N 47°18' W 002°08'0 0.0
2018-Jun-15 05:28N 47°18' W 002°08'0 0.0
2018-Jun-15 04:58N 47°18' W 002°08'0 0.0
2018-Jun-15 04:28N 47°18' W 002°08'0 0.0
2018-Jun-15 03:58N 47°18' W 002°08'0 0.0
2018-Jun-15 03:25N 47°18' W 002°08'0 0.0
2018-Jun-15 02:58N 47°18' W 002°08'0 0.0
2018-Jun-15 02:25N 47°18' W 002°08'0 0.0
2018-Jun-15 01:58N 47°18' W 002°08'0 0.0
2018-Jun-15 01:28N 47°18' W 002°08'0 0.0
2018-Jun-15 00:58N 47°18' W 002°08'0 0.0
2018-Jun-15 00:28N 47°18' W 002°08'0 0.0
2018-Jun-14 23:58N 47°18' W 002°08'0 0.0
2018-Jun-14 23:25N 47°18' W 002°08'0 0.0
2018-Jun-14 22:58N 47°18' W 002°08'0 0.0
2018-Jun-14 22:25N 47°18' W 002°08'0 0.0
2018-Jun-14 21:58N 47°18' W 002°08'0 0.0
2018-Jun-14 21:28N 47°18' W 002°08'0 0.0
2018-Jun-14 20:58N 47°18' W 002°08'0 0.0
2018-Jun-14 20:28N 47°18' W 002°08'  
Track history (hours):
 
Tides and Currents Weather Stations Pressure Air Temp Water Temp Dewpoint Dewpoint Depression Visibility Wind Speed Wind Dir Waves Ship Positions

Samos Majesty

Last reported at 2018-Jun-24 19:59 UTC. Time now 2018-Jun-24 20:15 UTC.
Position N 51°15' E 004°23'.

Length 190 m; draft 7.1 m.

Type: Ship. MMSI: 311000257.

Date/timePositionNaut miles runAvg speedWind from/ knotsBaromVisibWave heightAir tempDewpointWater temp
2018-Jun-24 19:59N 51°15' E 004°23'0 0.0
2018-Jun-24 19:30N 51°15' E 004°23'0 0.0
2018-Jun-24 18:59N 51°15' E 004°23'0 0.0
2018-Jun-24 18:29N 51°15' E 004°23'0 0.0
2018-Jun-24 17:59N 51°15' E 004°23'0 0.0
2018-Jun-24 17:29N 51°15' E 004°23'0 0.0
2018-Jun-24 16:59N 51°15' E 004°23'0 0.0
2018-Jun-24 16:29N 51°15' E 004°23'0 0.0
2018-Jun-24 15:59N 51°15' E 004°23'0 0.0
2018-Jun-24 15:29N 51°15' E 004°23'0 0.0
2018-Jun-24 14:59N 51°15' E 004°23'0 0.0
2018-Jun-24 14:29N 51°15' E 004°23'0 0.0
2018-Jun-24 13:59N 51°15' E 004°23'0 0.0
2018-Jun-24 13:29N 51°15' E 004°23'0 0.0
2018-Jun-24 12:59N 51°15' E 004°23'0 0.0
2018-Jun-24 12:29N 51°15' E 004°23'0 0.0
2018-Jun-24 11:59N 51°15' E 004°23'0 0.0
2018-Jun-24 11:29N 51°15' E 004°23'0 0.0
2018-Jun-24 10:59N 51°15' E 004°23'0 0.0
2018-Jun-24 10:30N 51°15' E 004°23'0 0.0
2018-Jun-24 09:59N 51°15' E 004°23'0 0.0
2018-Jun-24 09:29N 51°15' E 004°23'0 0.0
2018-Jun-24 08:59N 51°15' E 004°23'0 0.0
2018-Jun-24 08:29N 51°15' E 004°23'0 0.0
2018-Jun-24 07:59N 51°15' E 004°23'0 0.0
2018-Jun-24 07:30N 51°15' E 004°23'0 0.0
2018-Jun-24 06:59N 51°15' E 004°23'0 0.0
2018-Jun-24 06:29N 51°15' E 004°23'0 0.0
2018-Jun-24 05:59N 51°15' E 004°23'0 0.0
2018-Jun-24 05:29N 51°15' E 004°23'0 0.0
2018-Jun-24 04:59N 51°15' E 004°23'0 0.0
2018-Jun-24 04:29N 51°15' E 004°23'0 0.0
2018-Jun-24 03:59N 51°15' E 004°23'0 0.0
2018-Jun-24 03:29N 51°15' E 004°23'0 0.0
2018-Jun-24 02:59N 51°15' E 004°23'0 0.0
2018-Jun-24 02:29N 51°15' E 004°23'0 0.0
2018-Jun-24 01:59N 51°15' E 004°23'0 0.0
2018-Jun-24 01:29N 51°15' E 004°23'0 0.0
2018-Jun-24 00:59N 51°15' E 004°23'0 0.0
2018-Jun-24 00:29N 51°15' E 004°23'0 0.0
2018-Jun-23 23:59N 51°15' E 004°23'0 0.0
2018-Jun-23 23:29N 51°15' E 004°23'0 0.0
2018-Jun-23 22:59N 51°15' E 004°23'0 0.0
2018-Jun-23 22:29N 51°15' E 004°23'0 0.0
2018-Jun-23 21:59N 51°15' E 004°23'0 0.0
2018-Jun-23 21:26N 51°15' E 004°23'0 0.0
2018-Jun-23 20:59N 51°15' E 004°23'0 0.0
2018-Jun-23 20:29N 51°15' E 004°23'0 0.0
2018-Jun-23 19:59N 51°15' E 004°23'0 0.0
2018-Jun-23 19:29N 51°15' E 004°23'0 0.0
2018-Jun-23 18:59N 51°15' E 004°23'0 0.0
2018-Jun-23 18:29N 51°15' E 004°23'0 0.0
2018-Jun-23 17:59N 51°15' E 004°23'0 0.0
2018-Jun-23 17:29N 51°15' E 004°23'0 0.0
2018-Jun-23 16:56N 51°15' E 004°23'0 0.0
2018-Jun-23 16:29N 51°15' E 004°23'0 0.0
2018-Jun-23 15:59N 51°15' E 004°23'0 0.0
2018-Jun-23 15:29N 51°15' E 004°23'0 0.0
2018-Jun-23 14:59N 51°15' E 004°23'0 0.0
2018-Jun-23 14:29N 51°15' E 004°23'0 0.0
2018-Jun-23 13:59N 51°15' E 004°23'0 0.0
2018-Jun-23 13:29N 51°15' E 004°23'0 0.0
2018-Jun-23 12:59N 51°15' E 004°23'0 0.0
2018-Jun-23 12:29N 51°15' E 004°23'0 0.0
2018-Jun-23 11:59N 51°15' E 004°23'0 0.0
2018-Jun-23 11:29N 51°15' E 004°23'0 0.6
2018-Jun-23 11:01N 51°15' E 004°23'2 3.8
2018-Jun-23 10:30N 51°16' E 004°20'3 6.2
2018-Jun-23 10:00N 51°19' E 004°19'2 3.8
2018-Jun-23 09:31N 51°21' E 004°17'0 0.0
2018-Jun-23 09:01N 51°21' E 004°17'0 0.0
2018-Jun-23 08:31N 51°21' E 004°17'1 2.5
2018-Jun-23 08:00N 51°21' E 004°15'4 7.4
2018-Jun-23 07:31N 51°24' E 004°11'611.4
2018-Jun-23 07:00N 51°23' E 004°02'3 6.3
2018-Jun-23 06:31N 51°24' E 003°57'612.4
2018-Jun-23 06:00N 51°21' E 003°49'612.4
2018-Jun-23 05:30N 51°25' E 003°42'5 9.5
2018-Jun-23 05:00N 51°26' E 003°34'511.0
2018-Jun-23 04:31N 51°30' E 003°28'612.1
2018-Jun-23 03:59N 51°35' E 003°23'612.2
2018-Jun-23 03:28N 51°41' E 003°18'4 8.8
2018-Jun-23 03:00N 51°44' E 003°15'3 6.2
2018-Jun-23 02:30N 51°47' E 003°19'0 0.3
2018-Jun-23 01:11N 51°46' E 003°19'0 0.2
2018-Jun-23 00:50N 51°46' E 003°19'0 0.0
2018-Jun-22 20:53N 51°46' E 003°19'0 0.0
2018-Jun-22 20:08N 51°46' E 003°19'0 0.9
2018-Jun-22 19:57N 51°46' E 003°19'2 3.3
2018-Jun-22 19:23N 51°48' E 003°17'410.7
2018-Jun-22 19:00N 51°52' E 003°18'613.1
2018-Jun-22 18:30N 51°58' E 003°19'713.8
2018-Jun-22 18:00N 52°05' E 003°22'714.2
2018-Jun-22 17:30N 52°11' E 003°27'714.2
2018-Jun-22 17:00N 52°17' E 003°33'714.3
2018-Jun-22 16:30N 52°24' E 003°38'714.2
2018-Jun-22 16:00N 52°29' E 003°45'612.0
2018-Jun-22 15:30N 52°32' E 003°55'611.7
2018-Jun-22 15:00N 52°32' E 004°04'611.5
2018-Jun-22 14:30N 52°31' E 004°14'611.5
2018-Jun-22 14:00N 52°30' E 004°23'4 8.9
2018-Jun-22 13:31N 52°29' E 004°30'4 8.1
2018-Jun-22 13:01N 52°28' E 004°37'0 0.5
2018-Jun-22 12:30N 52°28' E 004°37'1 1.8
2018-Jun-22 12:00N 52°28' E 004°38'1 2.6
2018-Jun-22 11:30N 52°27' E 004°40'3 5.7
2018-Jun-22 11:01N 52°26' E 004°44'3 5.6
2018-Jun-22 10:30N 52°25' E 004°49'1 1.2
2018-Jun-22 09:59N 52°25' E 004°49'0 0.0
2018-Jun-22 09:29N 52°25' E 004°49'0 0.0
2018-Jun-22 08:59N 52°25' E 004°49'0 0.0
2018-Jun-22 08:29N 52°25' E 004°49'0 0.0
2018-Jun-22 07:59N 52°25' E 004°49'0 0.0
2018-Jun-22 07:29N 52°25' E 004°49'0 0.0
2018-Jun-22 06:59N 52°25' E 004°49'0 0.0
2018-Jun-22 06:29N 52°25' E 004°49'0 0.0
2018-Jun-22 05:59N 52°25' E 004°49'0 0.0
2018-Jun-22 05:29N 52°25' E 004°49'0 0.0
2018-Jun-22 04:59N 52°25' E 004°49'0 0.0
2018-Jun-22 04:29N 52°25' E 004°49'0 0.0
2018-Jun-22 03:59N 52°25' E 004°49'0 0.0
2018-Jun-22 03:29N 52°25' E 004°49'0 0.0
2018-Jun-22 02:59N 52°25' E 004°49'0 0.0
2018-Jun-22 02:29N 52°25' E 004°49'0 0.0
2018-Jun-22 01:56N 52°25' E 004°49'0 0.0
2018-Jun-22 01:29N 52°25' E 004°49'0 0.0
2018-Jun-22 00:59N 52°25' E 004°49'0 0.0
2018-Jun-22 00:29N 52°25' E 004°49'0 0.0
2018-Jun-21 23:59N 52°25' E 004°49'0 0.0
2018-Jun-21 23:29N 52°25' E 004°49'0 0.0
2018-Jun-21 22:59N 52°25' E 004°49'0 0.0
2018-Jun-21 22:29N 52°25' E 004°49'0 0.0
2018-Jun-21 21:59N 52°25' E 004°49'0 0.0
2018-Jun-21 21:29N 52°25' E 004°49'0 0.0
2018-Jun-21 20:59N 52°25' E 004°49'0 0.0
2018-Jun-21 20:29N 52°25' E 004°49'0 0.0
2018-Jun-21 19:59N 52°25' E 004°49'0 0.0
2018-Jun-21 19:29N 52°25' E 004°49'0 0.0
2018-Jun-21 18:59N 52°25' E 004°49'0 0.0
2018-Jun-21 18:29N 52°25' E 004°49'0 0.0
2018-Jun-21 17:59N 52°25' E 004°49'0 0.0
2018-Jun-21 17:29N 52°25' E 004°49'0 0.0
2018-Jun-21 16:59N 52°25' E 004°49'0 0.0
2018-Jun-21 16:29N 52°25' E 004°49'0 0.0
2018-Jun-21 15:59N 52°25' E 004°49'0 0.0
2018-Jun-21 15:29N 52°25' E 004°49'0 0.0
2018-Jun-21 14:59N 52°25' E 004°49'0 0.0
2018-Jun-21 14:29N 52°25' E 004°49'0 0.0
2018-Jun-21 13:59N 52°25' E 004°49'0 0.0
2018-Jun-21 13:29N 52°25' E 004°49'0 0.0
2018-Jun-21 12:59N 52°25' E 004°49'0 0.0
2018-Jun-21 12:29N 52°25' E 004°49'0 0.0
2018-Jun-21 11:59N 52°25' E 004°49'0 0.0
2018-Jun-21 11:29N 52°25' E 004°49'0 0.0
2018-Jun-21 10:59N 52°25' E 004°49'0 0.0
2018-Jun-21 10:29N 52°25' E 004°49'0 0.0
2018-Jun-21 09:59N 52°25' E 004°49'0 0.0
2018-Jun-21 09:29N 52°25' E 004°49'0 0.0
2018-Jun-21 08:59N 52°25' E 004°49'0 0.0
2018-Jun-21 08:29N 52°25' E 004°49'0 0.0
2018-Jun-21 07:59N 52°25' E 004°49'0 0.0
2018-Jun-21 07:29N 52°25' E 004°49'0 0.0
2018-Jun-21 06:59N 52°25' E 004°49'0 0.0
2018-Jun-21 06:29N 52°25' E 004°49'0 0.0
2018-Jun-21 05:59N 52°25' E 004°49'0 0.0
2018-Jun-21 05:29N 52°25' E 004°49'0 0.0
2018-Jun-21 04:59N 52°25' E 004°49'0 0.0
2018-Jun-21 04:29N 52°25' E 004°49'0 0.0
2018-Jun-21 03:59N 52°25' E 004°49'0 0.0
2018-Jun-21 03:29N 52°25' E 004°49'0 0.0
2018-Jun-21 02:59N 52°25' E 004°49'0 0.0
2018-Jun-21 02:29N 52°25' E 004°49'0 0.0
2018-Jun-21 01:59N 52°25' E 004°49'0 0.0
2018-Jun-21 01:29N 52°25' E 004°49'0 0.0
2018-Jun-21 00:59N 52°25' E 004°49'0 0.0
2018-Jun-21 00:29N 52°25' E 004°49'0 0.0
2018-Jun-20 23:59N 52°25' E 004°49'0 0.0
2018-Jun-20 23:29N 52°25' E 004°49'0 0.0
2018-Jun-20 22:59N 52°25' E 004°49'0 0.0
2018-Jun-20 22:29N 52°25' E 004°49'0 0.0
2018-Jun-20 21:59N 52°25' E 004°49'0 0.0
2018-Jun-20 21:29N 52°25' E 004°49'0 0.0
2018-Jun-20 20:59N 52°25' E 004°49'0 0.0
2018-Jun-20 20:29N 52°25' E 004°49'0 0.0
2018-Jun-20 19:59N 52°25' E 004°49'0 0.0
2018-Jun-20 19:29N 52°25' E 004°49'0 0.0
2018-Jun-20 18:59N 52°25' E 004°49'0 0.0
2018-Jun-20 18:29N 52°25' E 004°49'0 0.0
2018-Jun-20 17:59N 52°25' E 004°49'0 0.0
2018-Jun-20 17:29N 52°25' E 004°49'0 0.0
2018-Jun-20 16:59N 52°25' E 004°49'0 0.1
2018-Jun-20 16:29N 52°25' E 004°49'0 0.0
2018-Jun-20 15:59N 52°25' E 004°49'0 0.0
2018-Jun-20 15:29N 52°25' E 004°49'0 0.0
2018-Jun-20 14:59N 52°25' E 004°49'0 0.0
2018-Jun-20 14:26N 52°25' E 004°49'0 0.0
2018-Jun-20 13:59N 52°25' E 004°49'0 0.0
2018-Jun-20 13:29N 52°25' E 004°49'0 0.0
2018-Jun-20 12:59N 52°25' E 004°49'0 0.0
2018-Jun-20 12:29N 52°25' E 004°49'0 0.0
2018-Jun-20 11:59N 52°25' E 004°49'0 0.0
2018-Jun-20 11:29N 52°25' E 004°49'0 0.0
2018-Jun-20 10:59N 52°25' E 004°49'0 0.0
2018-Jun-20 10:29N 52°25' E 004°49'0 0.0
2018-Jun-20 09:59N 52°25' E 004°49'0 0.0
2018-Jun-20 09:29N 52°25' E 004°49'0 0.0
2018-Jun-20 08:59N 52°25' E 004°49'0 0.0
2018-Jun-20 08:29N 52°25' E 004°49'0 0.0
2018-Jun-20 07:59N 52°25' E 004°49'0 0.0
2018-Jun-20 07:29N 52°25' E 004°49'0 0.0
2018-Jun-20 06:59N 52°25' E 004°49'0 0.0
2018-Jun-20 06:29N 52°25' E 004°49'0 0.0
2018-Jun-20 05:59N 52°25' E 004°49'0 0.0
2018-Jun-20 05:29N 52°25' E 004°49'0 0.0
2018-Jun-20 04:59N 52°25' E 004°49'0 0.0
2018-Jun-20 04:29N 52°25' E 004°49'0 0.0
2018-Jun-20 03:59N 52°25' E 004°49'0 0.0
2018-Jun-20 03:29N 52°25' E 004°49'0 0.0
2018-Jun-20 02:59N 52°25' E 004°49'0 0.0
2018-Jun-20 02:29N 52°25' E 004°49'0 0.0
2018-Jun-20 01:59N 52°25' E 004°49'0 0.0
2018-Jun-20 01:29N 52°25' E 004°49'0 0.0
2018-Jun-20 00:59N 52°25' E 004°49'0 0.0
2018-Jun-20 00:29N 52°25' E 004°49'0 0.0
2018-Jun-19 23:59N 52°25' E 004°49'0 0.0
2018-Jun-19 23:29N 52°25' E 004°49'0 0.0
2018-Jun-19 22:59N 52°25' E 004°49'0 0.0
2018-Jun-19 22:29N 52°25' E 004°49'0 0.0
2018-Jun-19 21:59N 52°25' E 004°49'0 0.0
2018-Jun-19 21:29N 52°25' E 004°49'0 0.0
2018-Jun-19 20:59N 52°25' E 004°49'0 0.0
2018-Jun-19 20:29N 52°25' E 004°49'0 0.0
2018-Jun-19 19:59N 52°25' E 004°49'0 0.0
2018-Jun-19 19:29N 52°25' E 004°49'0 0.0
2018-Jun-19 18:59N 52°25' E 004°49'0 0.0
2018-Jun-19 18:26N 52°25' E 004°49'0 0.0
2018-Jun-19 17:59N 52°25' E 004°49'0 0.0
2018-Jun-19 17:29N 52°25' E 004°49'0 0.1
2018-Jun-19 16:59N 52°25' E 004°49'0 0.0
2018-Jun-19 16:29N 52°25' E 004°49'0 0.0
2018-Jun-19 15:59N 52°25' E 004°49'0 0.0
2018-Jun-19 15:29N 52°25' E 004°49'0 0.0
2018-Jun-19 14:59N 52°25' E 004°49'0 0.0
2018-Jun-19 14:29N 52°25' E 004°49'0 0.0
2018-Jun-19 13:59N 52°25' E 004°49'0 0.0
2018-Jun-19 13:29N 52°25' E 004°49'0 0.0
2018-Jun-19 12:59N 52°25' E 004°49'0 0.0
2018-Jun-19 12:29N 52°25' E 004°49'0 0.0
2018-Jun-19 11:59N 52°25' E 004°49'0 0.0
2018-Jun-19 11:29N 52°25' E 004°49'0 0.0
2018-Jun-19 10:59N 52°25' E 004°49'0 0.0
2018-Jun-19 10:29N 52°25' E 004°49'0 0.0
2018-Jun-19 09:59N 52°25' E 004°49'0 0.0
2018-Jun-19 09:29N 52°25' E 004°49'0 0.0
2018-Jun-19 08:59N 52°25' E 004°49'0 0.0
2018-Jun-19 08:26N 52°25' E 004°49'0 0.0
2018-Jun-19 07:59N 52°25' E 004°49'0 0.0
2018-Jun-19 07:29N 52°25' E 004°49'0 0.0
2018-Jun-19 06:59N 52°25' E 004°49'0 0.0
2018-Jun-19 06:29N 52°25' E 004°49'0 0.0
2018-Jun-19 05:59N 52°25' E 004°49'0 0.0
2018-Jun-19 05:29N 52°25' E 004°49'0 0.0
2018-Jun-19 04:59N 52°25' E 004°49'0 0.0
2018-Jun-19 04:29N 52°25' E 004°49'0 0.0
2018-Jun-19 03:59N 52°25' E 004°49'0 0.0
2018-Jun-19 03:29N 52°25' E 004°49'0 0.0
2018-Jun-19 02:59N 52°25' E 004°49'0 0.0
2018-Jun-19 02:29N 52°25' E 004°49'0 0.0
2018-Jun-19 01:59N 52°25' E 004°49'0 0.0
2018-Jun-19 01:29N 52°25' E 004°49'0 0.0
2018-Jun-19 00:59N 52°25' E 004°49'0 0.0
2018-Jun-19 00:29N 52°25' E 004°49'0 0.0
2018-Jun-18 23:59N 52°25' E 004°49'0 0.0
2018-Jun-18 23:29N 52°25' E 004°49'0 0.0
2018-Jun-18 22:59N 52°25' E 004°49'0 0.0
2018-Jun-18 22:29N 52°25' E 004°49'0 0.0
2018-Jun-18 21:59N 52°25' E 004°49'0 0.0
2018-Jun-18 21:29N 52°25' E 004°49'0 0.0
2018-Jun-18 20:59N 52°25' E 004°49'0 0.0
2018-Jun-18 20:29N 52°25' E 004°49'0 0.0
2018-Jun-18 19:59N 52°25' E 004°49'0 0.0
2018-Jun-18 19:29N 52°25' E 004°49'0 0.0
2018-Jun-18 18:59N 52°25' E 004°49'0 0.0
2018-Jun-18 18:29N 52°25' E 004°49'0 0.0
2018-Jun-18 17:59N 52°25' E 004°49'0 0.0
2018-Jun-18 17:29N 52°25' E 004°49'0 0.0
2018-Jun-18 16:59N 52°25' E 004°49'0 0.0
2018-Jun-18 16:29N 52°25' E 004°49'0 0.0
2018-Jun-18 15:59N 52°25' E 004°49'0 0.0
2018-Jun-18 15:29N 52°25' E 004°49'0 0.0
2018-Jun-18 14:59N 52°25' E 004°49'0 0.0
2018-Jun-18 14:26N 52°25' E 004°49'0 0.0
2018-Jun-18 13:59N 52°25' E 004°49'0 0.0
2018-Jun-18 13:29N 52°25' E 004°49'0 0.0
2018-Jun-18 12:59N 52°25' E 004°49'0 0.0
2018-Jun-18 12:29N 52°25' E 004°49'0 0.0
2018-Jun-18 11:59N 52°25' E 004°49'0 0.0
2018-Jun-18 11:29N 52°25' E 004°49'0 0.0
2018-Jun-18 10:59N 52°25' E 004°49'0 0.0
2018-Jun-18 10:29N 52°25' E 004°49'0 0.0
2018-Jun-18 09:59N 52°25' E 004°49'0 0.0
2018-Jun-18 09:29N 52°25' E 004°49'0 0.0
2018-Jun-18 08:59N 52°25' E 004°49'0 0.0
2018-Jun-18 08:29N 52°25' E 004°49'0 0.0
2018-Jun-18 07:59N 52°25' E 004°49'0 0.0
2018-Jun-18 07:29N 52°25' E 004°49'0 0.1
2018-Jun-18 06:59N 52°25' E 004°49'0 0.1
2018-Jun-18 06:29N 52°25' E 004°49'0 0.0
2018-Jun-18 05:59N 52°25' E 004°49'0 0.0
2018-Jun-18 05:29N 52°25' E 004°49'0 0.0
2018-Jun-18 04:59N 52°25' E 004°49'0 0.0
2018-Jun-18 04:29N 52°25' E 004°49'0 0.0
2018-Jun-18 03:59N 52°25' E 004°49'0 0.0
2018-Jun-18 03:29N 52°25' E 004°49'0 0.0
2018-Jun-18 02:59N 52°25' E 004°49'0 0.0
2018-Jun-18 02:29N 52°25' E 004°49'0 0.0
2018-Jun-18 01:59N 52°25' E 004°49'0 0.0
2018-Jun-18 01:29N 52°25' E 004°49'0 0.0
2018-Jun-18 01:00N 52°25' E 004°49'0 0.6
2018-Jun-18 00:30N 52°25' E 004°49'3 5.5
2018-Jun-18 00:01N 52°26' E 004°45'4 7.3
2018-Jun-17 23:30N 52°28' E 004°39'2 3.8
2018-Jun-17 23:00N 52°28' E 004°36'0 0.1
2018-Jun-17 22:30N 52°28' E 004°36'3 5.7
2018-Jun-17 22:00N 52°28' E 004°32'5 9.3
2018-Jun-17 21:30N 52°29' E 004°24'5 9.1
2018-Jun-17 21:00N 52°29' E 004°17'510.0
2018-Jun-17 20:30N 52°29' E 004°09'5 9.9
2018-Jun-17 20:00N 52°28' E 004°01'612.8
2018-Jun-17 19:30N 52°26' E 003°50'713.4
2018-Jun-17 19:00N 52°24' E 003°40'713.9
2018-Jun-17 18:31N 52°21' E 003°30'914.4
2018-Jun-17 17:52N 52°14' E 003°19'514.6
2018-Jun-17 17:30N 52°11' E 003°13'814.8
2018-Jun-17 17:00N 52°05' E 003°04'714.9
2018-Jun-17 16:30N 52°00' E 002°56'1315.1
2018-Jun-17 15:40N 51°50' E 002°43'314.9
2018-Jun-17 15:28N 51°48' E 002°40'714.9
2018-Jun-17 15:01N 51°43' E 002°32'714.5
2018-Jun-17 14:31N 51°38' E 002°24'714.2
2018-Jun-17 14:00N 51°32' E 002°17'713.6
2018-Jun-17 13:30N 51°27' E 002°09'713.4
2018-Jun-17 13:00N 51°22' E 002°02'613.0
2018-Jun-17 12:30N 51°17' E 001°56'612.0
2018-Jun-17 12:00N 51°13' E 001°49'611.1
2018-Jun-17 11:30N 51°09' E 001°43'510.2
2018-Jun-17 11:00N 51°04' E 001°39'5 9.9
2018-Jun-17 10:30N 51°01' E 001°33'5 9.9
2018-Jun-17 10:00N 50°57' E 001°29'5 9.6
2018-Jun-17 09:30N 50°53' E 001°25'510.3
2018-Jun-17 09:00N 50°48' E 001°23'510.5
2018-Jun-17 08:30N 50°43' E 001°20'611.0
2018-Jun-17 07:58N 50°38' E 001°13'1111.5
2018-Jun-17 07:02N 50°31' E 001°00'111.6
2018-Jun-17 06:54N 50°31' E 000°58'511.6
2018-Jun-17 06:26N 50°29' E 000°50'1511.7
2018-Jun-17 05:08N 50°25' E 000°27'311.6
2018-Jun-17 04:53N 50°24' E 000°23'2211.7
2018-Jun-17 03:00N 50°18' W 000°10'611.9
2018-Jun-17 02:29N 50°16' W 000°19'712.1
2018-Jun-17 01:55N 50°15' W 000°30'512.7
2018-Jun-17 01:30N 50°13' W 000°38'813.5
2018-Jun-17 00:57N 50°11' W 000°49'5616.3
2018-Jun-16 21:31N 49°56' W 002°13'116.9
2018-Jun-16 21:27N 49°56' W 002°15'716.5
2018-Jun-16 21:00N 49°54' W 002°26'815.7
2018-Jun-16 20:30N 49°52' W 002°37'815.3
2018-Jun-16 20:00N 49°50' W 002°49'714.8
2018-Jun-16 19:30N 49°46' W 002°59'814.5
2018-Jun-16 18:58N 49°43' W 003°10'714.2
2018-Jun-16 18:29N 49°39' W 003°19'1613.8
2018-Jun-16 17:17N 49°31' W 003°41'413.5
2018-Jun-16 16:59N 49°29' W 003°46'613.4
2018-Jun-16 16:30N 49°25' W 003°55'1412.9
2018-Jun-16 15:26N 49°18' W 004°13'4011.3
2018-Jun-16 11:52N 48°58' W 005°06'410.8
2018-Jun-16 11:29N 48°56' W 005°11'510.9
2018-Jun-16 11:00N 48°53' W 005°18'510.8
2018-Jun-16 10:31N 48°50' W 005°25'42 9.4
2018-Jun-16 06:02N 48°08' W 005°24'312.3
2018-Jun-16 05:48N 48°05' W 005°21'412.3
2018-Jun-16 05:29N 48°03' W 005°17'612.7
2018-Jun-16 05:00N 47°59' W 005°10'712.8
2018-Jun-16 04:27N 47°55' W 005°01'613.0
2018-Jun-16 04:01N 47°52' W 004°54'713.2
2018-Jun-16 03:30N 47°48' W 004°46'1113.0
2018-Jun-16 02:40N 47°42' W 004°33'212.7
2018-Jun-16 02:29N 47°41' W 004°30'1513.0
2018-Jun-16 01:22N 47°34' W 004°11'613.2
2018-Jun-16 00:56N 47°31' W 004°03'613.0
2018-Jun-16 00:31N 47°28' W 003°56'612.7
2018-Jun-16 00:01N 47°26' W 003°48'612.7
2018-Jun-15 23:31N 47°23' W 003°40'612.5
2018-Jun-15 23:00N 47°20' W 003°31'612.5
2018-Jun-15 22:30N 47°17' W 003°23'612.7
2018-Jun-15 22:01N 47°14' W 003°15'713.3
2018-Jun-15 21:30N 47°12' W 003°05'612.8
2018-Jun-15 21:00N 47°10' W 002°57'612.6
2018-Jun-15 20:31N 47°07' W 002°48'612.9
2018-Jun-15 20:00N 47°05' W 002°39'612.9
2018-Jun-15 19:30N 47°04' W 002°30'611.6
2018-Jun-15 19:00N 47°07' W 002°22'611.3
2018-Jun-15 18:31N 47°12' W 002°17'612.2
2018-Jun-15 18:00N 47°16' W 002°11'3 5.5
2018-Jun-15 17:28N 47°18' W 002°08'0 0.0
2018-Jun-15 16:49N 47°18' W 002°08'0 0.0
2018-Jun-15 16:19N 47°18' W 002°08'0 0.0
2018-Jun-15 15:58N 47°18' W 002°08'0 0.0
2018-Jun-15 15:28N 47°18' W 002°08'0 0.0
2018-Jun-15 14:58N 47°18' W 002°08'0 0.0
2018-Jun-15 14:28N 47°18' W 002°08'0 0.0
2018-Jun-15 13:58N 47°18' W 002°08'0 0.0
2018-Jun-15 13:25N 47°18' W 002°08'0 0.0
2018-Jun-15 12:58N 47°18' W 002°08'0 0.0
2018-Jun-15 12:25N 47°18' W 002°08'0 0.0
2018-Jun-15 11:52N 47°18' W 002°08'0 0.0
2018-Jun-15 11:28N 47°18' W 002°08'0 0.0
2018-Jun-15 10:58N 47°18' W 002°08'0 0.0
2018-Jun-15 10:28N 47°18' W 002°08'0 0.0
2018-Jun-15 09:58N 47°18' W 002°08'0 0.0
2018-Jun-15 09:28N 47°18' W 002°08'0 0.0
2018-Jun-15 08:58N 47°18' W 002°08'0 0.0
2018-Jun-15 08:28N 47°18' W 002°08'0 0.0
2018-Jun-15 07:58N 47°18' W 002°08'0 0.0
2018-Jun-15 07:28N 47°18' W 002°08'0 0.0
2018-Jun-15 06:58N 47°18' W 002°08'0 0.0
2018-Jun-15 06:28N 47°18' W 002°08'0 0.0
2018-Jun-15 05:58N 47°18' W 002°08'0 0.0
2018-Jun-15 05:28N 47°18' W 002°08'0 0.0
2018-Jun-15 04:58N 47°18' W 002°08'0 0.0
2018-Jun-15 04:28N 47°18' W 002°08'0 0.0
2018-Jun-15 03:58N 47°18' W 002°08'0 0.0
2018-Jun-15 03:25N 47°18' W 002°08'0 0.0
2018-Jun-15 02:58N 47°18' W 002°08'0 0.0
2018-Jun-15 02:25N 47°18' W 002°08'0 0.0
2018-Jun-15 01:58N 47°18' W 002°08'0 0.0
2018-Jun-15 01:28N 47°18' W 002°08'0 0.0
2018-Jun-15 00:58N 47°18' W 002°08'0 0.0
2018-Jun-15 00:28N 47°18' W 002°08'0 0.0
2018-Jun-14 23:58N 47°18' W 002°08'0 0.0
2018-Jun-14 23:25N 47°18' W 002°08'0 0.0
2018-Jun-14 22:58N 47°18' W 002°08'0 0.0
2018-Jun-14 22:25N 47°18' W 002°08'0 0.0
2018-Jun-14 21:58N 47°18' W 002°08'0 0.0
2018-Jun-14 21:28N 47°18' W 002°08'0 0.0
2018-Jun-14 20:58N 47°18' W 002°08'0 0.0
2018-Jun-14 20:28N 47°18' W 002°08'  

Dump ship's entire track history